TimeCST,TemperatureF,Dew PointF,Humidity,Sea Level PressureIn,VisibilityMPH,Wind Direction,Wind SpeedMPH,Gust SpeedMPH,PrecipitationIn,Events,Conditions,WindDirDegrees,DateUTC
12:15 AM,23.0,14.0,68,30.08,10.0,NW,11.5,-,N/A,,Scattered Clouds,310,2013-01-13 06:15:00
12:35 AM,23.0,14.0,68,30.07,10.0,NNW,18.4,-,N/A,,Overcast,330,2013-01-13 06:35:00
12:55 AM,23.0,14.0,68,30.07,10.0,NNW,13.8,-,N/A,,Mostly Cloudy,330,2013-01-13 06:55:00
1:15 AM,21.2,12.2,68,30.08,10.0,NNW,11.5,-,N/A,,Scattered Clouds,340,2013-01-13 07:15:00
1:35 AM,21.2,12.2,68,30.09,10.0,NNW,13.8,24.2,N/A,,Scattered Clouds,330,2013-01-13 07:35:00
1:55 AM,21.2,12.2,68,30.12,10.0,NNW,8.1,-,N/A,,Scattered Clouds,330,2013-01-13 07:55:00
2:15 AM,21.2,12.2,68,30.13,10.0,NNW,8.1,-,N/A,,Scattered Clouds,330,2013-01-13 08:15:00
2:35 AM,19.4,10.4,68,30.12,10.0,NNW,8.1,-,N/A,,Scattered Clouds,330,2013-01-13 08:35:00
2:55 AM,19.4,12.2,74,30.13,10.0,NW,6.9,-,N/A,,Scattered Clouds,320,2013-01-13 08:55:00
3:15 AM,19.4,10.4,68,30.14,10.0,NNW,9.2,-,N/A,,Scattered Clouds,330,2013-01-13 09:15:00
3:35 AM,19.4,10.4,68,30.12,10.0,NNW,11.5,16.1,N/A,,Clear,340,2013-01-13 09:35:00
4:15 AM,17.6,10.4,73,30.12,10.0,NNW,10.4,-,N/A,,Clear,330,2013-01-13 10:15:00
4:35 AM,17.6,8.6,68,30.13,10.0,NW,12.7,17.3,N/A,,Clear,320,2013-01-13 10:35:00
4:55 AM,17.6,8.6,68,30.13,10.0,NW,8.1,-,N/A,,Clear,320,2013-01-13 10:55:00
5:15 AM,17.6,8.6,68,30.14,10.0,NW,10.4,-,N/A,,Clear,310,2013-01-13 11:15:00
5:35 AM,17.6,10.4,73,30.15,10.0,NW,8.1,-,N/A,,Clear,320,2013-01-13 11:35:00
5:55 AM,17.6,8.6,68,30.18,10.0,NNW,6.9,-,N/A,,Clear,340,2013-01-13 11:55:00
6:15 AM,17.6,10.4,73,30.17,10.0,North,9.2,-,N/A,,Mostly Cloudy,350,2013-01-13 12:15:00
6:35 AM,17.6,10.4,73,30.19,10.0,North,8.1,-,N/A,,Overcast,350,2013-01-13 12:35:00
6:55 AM,17.6,8.6,68,30.20,10.0,North,6.9,-,N/A,,Overcast,350,2013-01-13 12:55:00
7:15 AM,17.6,8.6,68,30.21,10.0,NNW,6.9,-,N/A,,Overcast,330,2013-01-13 13:15:00
7:35 AM,17.6,8.6,68,30.21,10.0,NNW,9.2,-,N/A,,Overcast,340,2013-01-13 13:35:00
7:55 AM,15.8,8.6,73,30.21,10.0,NW,11.5,-,N/A,,Overcast,320,2013-01-13 13:55:00
8:15 AM,15.8,8.6,73,30.21,10.0,NW,8.1,-,N/A,,Scattered Clouds,320,2013-01-13 14:15:00
8:35 AM,15.8,8.6,73,30.21,10.0,NW,8.1,-,N/A,,Clear,310,2013-01-13 14:35:00
8:55 AM,17.6,8.6,68,30.22,10.0,NW,12.7,-,N/A,Snow,Light Snow,310,2013-01-13 14:55:00
9:15 AM,17.6,8.6,68,30.22,10.0,NW,12.7,-,N/A,,Overcast,320,2013-01-13 15:15:00
9:35 AM,17.6,10.4,73,30.23,10.0,NW,13.8,17.3,N/A,,Unknown,320,2013-01-13 15:35:00
9:55 AM,17.6,10.4,73,30.23,10.0,WNW,10.4,18.4,N/A,,Unknown,300,2013-01-13 15:55:00
10:15 AM,17.6,10.4,73,30.25,10.0,WNW,12.7,16.1,N/A,,Overcast,290,2013-01-13 16:15:00
10:35 AM,17.6,10.4,73,30.25,10.0,NW,10.4,-,N/A,,Mostly Cloudy,320,2013-01-13 16:35:00
10:55 AM,19.4,10.4,68,30.25,10.0,NW,10.4,16.1,N/A,,Scattered Clouds,320,2013-01-13 16:55:00
11:15 AM,19.4,10.4,68,30.25,10.0,WNW,11.5,-,N/A,,Scattered Clouds,290,2013-01-13 17:15:00
11:55 AM,19.4,10.4,68,30.23,10.0,NW,10.4,-,N/A,,Clear,310,2013-01-13 17:55:00
12:15 PM,21.2,10.4,63,30.23,10.0,West,10.4,17.3,N/A,,Clear,280,2013-01-13 18:15:00
12:35 PM,21.2,10.4,63,30.22,10.0,West,11.5,16.1,N/A,,Clear,280,2013-01-13 18:35:00
12:55 PM,21.2,10.4,63,30.22,10.0,WNW,10.4,17.3,N/A,,Clear,300,2013-01-13 18:55:00
1:15 PM,23.0,12.2,63,30.22,10.0,WNW,11.5,-,N/A,,Clear,290,2013-01-13 19:15:00
1:35 PM,23.0,10.4,59,30.22,10.0,WNW,11.5,-,N/A,,Clear,290,2013-01-13 19:35:00
1:55 PM,23.0,12.2,63,30.22,10.0,NW,12.7,18.4,N/A,,Clear,310,2013-01-13 19:55:00
2:15 PM,24.8,12.2,59,30.23,10.0,WNW,13.8,-,N/A,,Unknown,290,2013-01-13 20:15:00
2:35 PM,26.6,12.2,55,30.24,10.0,WNW,11.5,16.1,N/A,,Clear,300,2013-01-13 20:35:00
2:55 PM,26.6,12.2,55,30.24,10.0,NW,11.5,-,N/A,,Clear,310,2013-01-13 20:55:00
3:15 PM,26.6,12.2,55,30.24,10.0,NW,10.4,-,N/A,,Clear,310,2013-01-13 21:15:00
3:35 PM,26.6,10.4,51,30.24,10.0,NW,10.4,-,N/A,,Clear,310,2013-01-13 21:35:00
3:55 PM,26.6,10.4,51,30.25,10.0,West,11.5,-,N/A,,Clear,280,2013-01-13 21:55:00
4:15 PM,26.6,10.4,51,30.25,10.0,WNW,9.2,16.1,N/A,,Clear,300,2013-01-13 22:15:00
4:35 PM,26.6,10.4,51,30.27,10.0,WNW,10.4,-,N/A,,Unknown,290,2013-01-13 22:35:00
5:15 PM,26.6,10.4,51,30.27,10.0,WNW,6.9,-,N/A,,Clear,300,2013-01-13 23:15:00
5:35 PM,24.8,10.4,54,30.28,10.0,WNW,5.8,-,N/A,,Unknown,300,2013-01-13 23:35:00
5:55 PM,24.8,10.4,54,30.29,10.0,WNW,4.6,-,N/A,,Clear,300,2013-01-13 23:55:00
6:15 PM,23.0,10.4,59,30.29,10.0,WNW,3.5,-,N/A,,Clear,300,2013-01-14 00:15:00
6:35 PM,23.0,8.6,54,30.29,10.0,NNW,5.8,-,N/A,,Clear,330,2013-01-14 00:35:00
6:55 PM,23.0,10.4,59,30.29,10.0,NW,3.5,-,N/A,,Clear,320,2013-01-14 00:55:00
7:15 PM,21.2,12.2,68,30.30,10.0,Calm,Calm,-,N/A,,Clear,0,2013-01-14 01:15:00
7:35 PM,21.2,12.2,68,30.30,10.0,Calm,Calm,-,N/A,,Clear,0,2013-01-14 01:35:00
7:55 PM,19.4,12.2,74,30.31,10.0,Calm,Calm,-,N/A,,Clear,0,2013-01-14 01:55:00
8:15 PM,19.4,12.2,74,30.30,10.0,Calm,Calm,-,N/A,,Clear,0,2013-01-14 02:15:00
8:35 PM,19.4,12.2,74,30.30,10.0,Calm,Calm,-,N/A,,Clear,0,2013-01-14 02:35:00
8:55 PM,17.6,12.2,79,30.30,10.0,Calm,Calm,-,N/A,,Clear,0,2013-01-14 02:55:00
9:15 PM,17.6,12.2,79,30.31,10.0,Calm,Calm,-,N/A,,Clear,0,2013-01-14 03:15:00
9:35 PM,15.8,12.2,86,30.32,10.0,Calm,Calm,-,N/A,,Clear,0,2013-01-14 03:35:00
9:55 PM,15.8,12.2,86,30.33,10.0,Calm,Calm,-,N/A,,Clear,0,2013-01-14 03:55:00
10:55 PM,14.0,12.2,93,30.34,10.0,Calm,Calm,-,N/A,,Clear,0,2013-01-14 04:55:00
11:35 PM,14.0,12.2,93,30.36,10.0,Calm,Calm,-,N/A,,Clear,0,2013-01-14 05:35:00